sensor_id;sensor_type;location;lat;lon;timestamp;pressure;altitude;pressure_sealevel;temperature;humidity
44531;BME280;30240;47.418;0.700;2023-03-01T00:00:34;101308.22143554688;;;2.42;64.9
44531;BME280;30240;47.418;0.700;2023-03-01T00:02:59;101302.734375;;;2.43;64.91
44531;BME280;30240;47.418;0.700;2023-03-01T00:05:23;101307.44018554688;;;2.44;65.04
44531;BME280;30240;47.418;0.700;2023-03-01T00:07:51;101307.84301757812;;;2.44;65.14
44531;BME280;30240;47.418;0.700;2023-03-01T00:10:14;101307.84301757812;;;2.44;65.14
44531;BME280;30240;47.418;0.700;2023-03-01T00:12:38;101304.2236328125;;;2.33;65.22
44531;BME280;30240;47.418;0.700;2023-03-01T00:15:04;101300.48217773438;;;2.42;65.66
44531;BME280;30240;47.418;0.700;2023-03-01T00:17:28;101303.466796875;;;2.37;65.69
44531;BME280;30240;47.418;0.700;2023-03-01T00:19:53;101310.38818359375;;;2.39;65.66
44531;BME280;30240;47.418;0.700;2023-03-01T00:22:18;101310.38818359375;;;2.39;65.66
44531;BME280;30240;47.418;0.700;2023-03-01T00:24:44;101311.56005859375;;;2.49;65.92
44531;BME280;30240;47.418;0.700;2023-03-01T00:27:08;101314.6728515625;;;2.51;65.95
44531;BME280;30240;47.418;0.700;2023-03-01T00:29:33;101312.35961914062;;;2.47;65.69
44531;BME280;30240;47.418;0.700;2023-03-01T00:31:59;101310.693359375;;;2.5;66.0
44531;BME280;30240;47.418;0.700;2023-03-01T00:34:23;101310.693359375;;;2.5;66.0
44531;BME280;30240;47.418;0.700;2023-03-01T00:36:49;101305.21850585938;;;2.37;66.16
44531;BME280;30240;47.418;0.700;2023-03-01T00:39:14;101288.90380859375;;;2.4;66.47
44531;BME280;30240;47.418;0.700;2023-03-01T00:41:39;101297.15576171875;;;2.37;66.51
44531;BME280;30240;47.418;0.700;2023-03-01T00:44:03;101298.7060546875;;;2.44;66.51
44531;BME280;30240;47.418;0.700;2023-03-01T00:46:29;101296.56372070312;;;2.29;66.84
44531;BME280;30240;47.418;0.700;2023-03-01T00:48:54;101296.56372070312;;;2.29;66.84
44531;BME280;30240;47.418;0.700;2023-03-01T00:51:20;101295.73364257812;;;2.33;67.07
44531;BME280;30240;47.418;0.700;2023-03-01T00:53:44;101299.93896484375;;;2.29;67.16
44531;BME280;30240;47.418;0.700;2023-03-01T00:56:11;101295.79467773438;;;2.12;67.75
44531;BME280;30240;47.418;0.700;2023-03-01T00:58:34;101291.27197265625;;;2.08;67.96
44531;BME280;30240;47.418;0.700;2023-03-01T01:01:00;101291.27197265625;;;2.08;67.96
44531;BME280;30240;47.418;0.700;2023-03-01T01:03:24;101288.92211914062;;;2.08;68.15
44531;BME280;30240;47.418;0.700;2023-03-01T01:05:48;101288.17138671875;;;1.95;68.25
44531;BME280;30240;47.418;0.700;2023-03-01T01:08:14;101288.7939453125;;;1.95;68.36
44531;BME280;30240;47.418;0.700;2023-03-01T01:10:38;101282.6416015625;;;1.88;68.46
44531;BME280;30240;47.418;0.700;2023-03-01T01:13:04;101282.6416015625;;;1.88;68.46
44531;BME280;30240;47.418;0.700;2023-03-01T01:15:29;101287.3779296875;;;1.84;68.47
44531;BME280;30240;47.418;0.700;2023-03-01T01:17:53;101282.95288085938;;;1.8;68.59
44531;BME280;30240;47.418;0.700;2023-03-01T01:20:18;101281.43920898438;;;1.83;68.87
44531;BME280;30240;47.418;0.700;2023-03-01T01:22:43;101280.3466796875;;;1.78;68.96
44531;BME280;30240;47.418;0.700;2023-03-01T01:25:09;101280.3466796875;;;1.78;68.96
44531;BME280;30240;47.418;0.700;2023-03-01T01:27:34;101277.99072265625;;;1.64;69.26
44531;BME280;30240;47.418;0.700;2023-03-01T01:29:58;101275.87280273438;;;1.55;69.72
44531;BME280;30240;47.418;0.700;2023-03-01T01:32:23;101274.51782226562;;;1.59;69.78
44531;BME280;30240;47.418;0.700;2023-03-01T01:34:48;101274.35913085938;;;1.52;70.19
44531;BME280;30240;47.418;0.700;2023-03-01T01:37:13;101274.35913085938;;;1.52;70.19
44531;BME280;30240;47.418;0.700;2023-03-01T01:39:38;101273.681640625;;;1.49;70.28
44531;BME280;30240;47.418;0.700;2023-03-01T01:42:03;101277.0751953125;;;1.43;70.35
44531;BME280;30240;47.418;0.700;2023-03-01T01:44:29;101272.76000976562;;;1.45;70.58
44531;BME280;30240;47.418;0.700;2023-03-01T01:46:56;101272.46704101562;;;1.38;70.8
44531;BME280;30240;47.418;0.700;2023-03-01T01:49:22;101272.46704101562;;;1.38;70.8
44531;BME280;30240;47.418;0.700;2023-03-01T01:51:45;101273.18725585938;;;1.31;70.94
44531;BME280;30240;47.418;0.700;2023-03-01T01:54:12;101269.61059570312;;;1.25;71.23
44531;BME280;30240;47.418;0.700;2023-03-01T01:56:34;101270.4345703125;;;1.28;71.15
44531;BME280;30240;47.418;0.700;2023-03-01T01:58:59;101263.65356445312;;;1.27;71.22
44531;BME280;30240;47.418;0.700;2023-03-01T02:01:24;101263.65356445312;;;1.27;71.22
44531;BME280;30240;47.418;0.700;2023-03-01T02:03:49;101266.10717773438;;;1.18;71.43
44531;BME280;30240;47.418;0.700;2023-03-01T02:06:17;101258.544921875;;;1.17;71.39
44531;BME280;30240;47.418;0.700;2023-03-01T02:08:40;101263.64135742188;;;1.18;71.68
44531;BME280;30240;47.418;0.700;2023-03-01T02:11:04;101259.3994140625;;;1.22;71.72
44531;BME280;30240;47.418;0.700;2023-03-01T02:13:30;101259.3994140625;;;1.22;71.72
44531;BME280;30240;47.418;0.700;2023-03-01T02:15:54;101253.32641601562;;;1.17;71.75
44531;BME280;30240;47.418;0.700;2023-03-01T02:18:21;101254.57763671875;;;1.09;71.65
44531;BME280;30240;47.418;0.700;2023-03-01T02:20:48;101248.7060546875;;;1.01;71.95
44531;BME280;30240;47.418;0.700;2023-03-01T02:20:56;101248.7060546875;;;1.01;71.95
44531;BME280;30240;47.418;0.700;2023-03-01T02:23:09;101249.57885742188;;;0.97;72.23
44531;BME280;30240;47.418;0.700;2023-03-01T02:25:38;101249.02954101562;;;1.0;72.15
44531;BME280;30240;47.418;0.700;2023-03-01T02:28:03;101249.02954101562;;;1.0;72.15
44531;BME280;30240;47.418;0.700;2023-03-01T02:30:24;101247.49755859375;;;0.93;72.37
44531;BME280;30240;47.418;0.700;2023-03-01T02:32:51;101241.12548828125;;;0.86;72.61
44531;BME280;30240;47.418;0.700;2023-03-01T02:35:15;101243.4814453125;;;0.82;72.79
44531;BME280;30240;47.418;0.700;2023-03-01T02:37:39;101243.73168945312;;;0.76;72.81
44531;BME280;30240;47.418;0.700;2023-03-01T02:40:07;101243.73168945312;;;0.76;72.81
44531;BME280;30240;47.418;0.700;2023-03-01T02:42:33;101241.63818359375;;;0.73;72.95
44531;BME280;30240;47.418;0.700;2023-03-01T02:44:54;101246.8017578125;;;0.72;72.95
44531;BME280;30240;47.418;0.700;2023-03-01T02:47:19;101240.087890625;;;0.79;72.78
44531;BME280;30240;47.418;0.700;2023-03-01T02:49:43;101234.50927734375;;;0.72;72.72
44531;BME280;30240;47.418;0.700;2023-03-01T02:52:19;101234.50927734375;;;0.72;72.72
44531;BME280;30240;47.418;0.700;2023-03-01T02:54:39;101237.29858398438;;;0.7;73.05
44531;BME280;30240;47.418;0.700;2023-03-01T02:56:59;101239.6240234375;;;0.69;72.74
44531;BME280;30240;47.418;0.700;2023-03-01T02:59:27;101233.73413085938;;;0.72;72.52
44531;BME280;30240;47.418;0.700;2023-03-01T03:01:49;101231.0791015625;;;0.72;72.18
44531;BME280;30240;47.418;0.700;2023-03-01T03:04:16;101231.0791015625;;;0.72;72.18
44531;BME280;30240;47.418;0.700;2023-03-01T03:06:38;101233.06274414062;;;0.76;72.26
44531;BME280;30240;47.418;0.700;2023-03-01T03:09:04;101227.89916992188;;;0.72;72.18
44531;BME280;30240;47.418;0.700;2023-03-01T03:11:29;101222.57690429688;;;0.72;72.25
44531;BME280;30240;47.418;0.700;2023-03-01T03:13:54;101215.59448242188;;;0.72;72.48
44531;BME280;30240;47.418;0.700;2023-03-01T03:16:19;101215.59448242188;;;0.72;72.48
44531;BME280;30240;47.418;0.700;2023-03-01T03:18:43;101223.88916015625;;;0.59;72.58
44531;BME280;30240;47.418;0.700;2023-03-01T03:21:09;101213.78784179688;;;0.58;72.43
44531;BME280;30240;47.418;0.700;2023-03-01T03:23:34;101219.51293945312;;;0.54;72.35
44531;BME280;30240;47.418;0.700;2023-03-01T03:25:59;101220.1416015625;;;0.51;72.03
44531;BME280;30240;47.418;0.700;2023-03-01T03:28:23;101220.1416015625;;;0.51;72.03
44531;BME280;30240;47.418;0.700;2023-03-01T03:30:48;101221.18530273438;;;0.47;72.23
44531;BME280;30240;47.418;0.700;2023-03-01T03:33:14;101217.68188476562;;;0.45;72.3
44531;BME280;30240;47.418;0.700;2023-03-01T03:35:40;101214.1845703125;;;0.44;72.26
44531;BME280;30240;47.418;0.700;2023-03-01T03:38:07;101210.13793945312;;;0.41;72.2
44531;BME280;30240;47.418;0.700;2023-03-01T03:40:30;101210.13793945312;;;0.41;72.2
44531;BME280;30240;47.418;0.700;2023-03-01T03:42:54;101206.64672851562;;;0.41;72.37
44531;BME280;30240;47.418;0.700;2023-03-01T03:45:19;101204.98657226562;;;0.36;72.54
44531;BME280;30240;47.418;0.700;2023-03-01T03:47:44;101200.86059570312;;;0.31;73.04
44531;BME280;30240;47.418;0.700;2023-03-01T03:50:09;101206.41479492188;;;0.17;73.1
44531;BME280;30240;47.418;0.700;2023-03-01T03:52:34;101204.21752929688;;;0.13;73.61
44531;BME280;30240;47.418;0.700;2023-03-01T03:54:59;101204.21752929688;;;0.13;73.61
44531;BME280;30240;47.418;0.700;2023-03-01T03:57:23;101204.5654296875;;;0.11;73.96
44531;BME280;30240;47.418;0.700;2023-03-01T03:59:48;101198.54736328125;;;0.07;74.11
44531;BME280;30240;47.418;0.700;2023-03-01T04:02:14;101193.59130859375;;;-0.05;74.39
44531;BME280;30240;47.418;0.700;2023-03-01T04:04:38;101190.04516601562;;;-0.01;74.38
44531;BME280;30240;47.418;0.700;2023-03-01T04:07:03;101190.04516601562;;;-0.01;74.38
44531;BME280;30240;47.418;0.700;2023-03-01T04:09:29;101197.17407226562;;;-0.07;74.18
44531;BME280;30240;47.418;0.700;2023-03-01T04:11:54;101201.09252929688;;;0.05;74.09
44531;BME280;30240;47.418;0.700;2023-03-01T04:14:19;101202.2216796875;;;0.02;74.08
44531;BME280;30240;47.418;0.700;2023-03-01T04:16:44;101199.20043945312;;;0.07;73.88
44531;BME280;30240;47.418;0.700;2023-03-01T04:19:08;101199.20043945312;;;0.07;73.88
44531;BME280;30240;47.418;0.700;2023-03-01T04:21:33;101195.84350585938;;;0.1;73.6
44531;BME280;30240;47.418;0.700;2023-03-01T04:23:58;101196.57592773438;;;0.02;73.72
44531;BME280;30240;47.418;0.700;2023-03-01T04:26:24;101197.8271484375;;;-0.03;73.96
44531;BME280;30240;47.418;0.700;2023-03-01T04:28:49;101197.14965820312;;;0.02;74.02
44531;BME280;30240;47.418;0.700;2023-03-01T04:31:15;101197.14965820312;;;0.02;74.02
44531;BME280;30240;47.418;0.700;2023-03-01T04:33:39;101190.09399414062;;;0.0;74.04
44531;BME280;30240;47.418;0.700;2023-03-01T04:36:04;101194.00634765625;;;-0.05;73.98
44531;BME280;30240;47.418;0.700;2023-03-01T04:38:28;101187.59155273438;;;0.03;73.62
44531;BME280;30240;47.418;0.700;2023-03-01T04:40:53;101190.7470703125;;;0.02;73.31
44531;BME280;30240;47.418;0.700;2023-03-01T04:43:18;101190.7470703125;;;0.02;73.31
44531;BME280;30240;47.418;0.700;2023-03-01T04:45:44;101185.888671875;;;0.02;72.96
44531;BME280;30240;47.418;0.700;2023-03-01T04:48:09;101188.43994140625;;;-0.01;72.96
44531;BME280;30240;47.418;0.700;2023-03-01T04:50:34;101188.9892578125;;;0.06;72.68
44531;BME280;30240;47.418;0.700;2023-03-01T04:52:59;101186.60888671875;;;0.02;72.92
44531;BME280;30240;47.418;0.700;2023-03-01T04:55:24;101186.60888671875;;;0.02;72.92
44531;BME280;30240;47.418;0.700;2023-03-01T04:57:48;101183.3740234375;;;-0.04;72.81
44531;BME280;30240;47.418;0.700;2023-03-01T05:00:14;101182.861328125;;;-0.01;72.71
44531;BME280;30240;47.418;0.700;2023-03-01T05:02:39;101183.25805664062;;;-0.11;72.78
44531;BME280;30240;47.418;0.700;2023-03-01T05:05:04;101191.9189453125;;;-0.22;73.04
44531;BME280;30240;47.418;0.700;2023-03-01T05:07:29;101191.9189453125;;;-0.22;73.04
44531;BME280;30240;47.418;0.700;2023-03-01T05:09:53;101186.95068359375;;;-0.17;73.06
44531;BME280;30240;47.418;0.700;2023-03-01T05:12:18;101188.36059570312;;;-0.19;73.14
44531;BME280;30240;47.418;0.700;2023-03-01T05:14:43;101181.48193359375;;;-0.22;73.03
44531;BME280;30240;47.418;0.700;2023-03-01T05:17:08;101184.97924804688;;;-0.3;73.3
44531;BME280;30240;47.418;0.700;2023-03-01T05:19:34;101184.97924804688;;;-0.3;73.3
44531;BME280;30240;47.418;0.700;2023-03-01T05:21:59;101180.70068359375;;;-0.35;73.44
44531;BME280;30240;47.418;0.700;2023-03-01T05:24:24;101170.78247070312;;;-0.35;73.38
44531;BME280;30240;47.418;0.700;2023-03-01T05:26:49;101171.11206054688;;;-0.35;73.46
44531;BME280;30240;47.418;0.700;2023-03-01T05:29:14;101171.20361328125;;;-0.43;73.85
44531;BME280;30240;47.418;0.700;2023-03-01T05:31:38;101167.90771484375;;;-0.5;74.26
44531;BME280;30240;47.418;0.700;2023-03-01T05:34:03;101167.90771484375;;;-0.5;74.26
44531;BME280;30240;47.418;0.700;2023-03-01T05:36:29;101167.138671875;;;-0.52;74.42
44531;BME280;30240;47.418;0.700;2023-03-01T05:38:53;101163.31787109375;;;-0.53;74.39
44531;BME280;30240;47.418;0.700;2023-03-01T05:41:19;101165.43579101562;;;-0.56;74.37
44531;BME280;30240;47.418;0.700;2023-03-01T05:43:43;101162.72583007812;;;-0.66;74.63
44531;BME280;30240;47.418;0.700;2023-03-01T05:46:08;101162.72583007812;;;-0.66;74.63
44531;BME280;30240;47.418;0.700;2023-03-01T05:48:33;101168.06030273438;;;-0.7;74.7
44531;BME280;30240;47.418;0.700;2023-03-01T05:50:59;101164.90478515625;;;-0.63;74.8
44531;BME280;30240;47.418;0.700;2023-03-01T05:53:23;101167.138671875;;;-0.59;74.74
44531;BME280;30240;47.418;0.700;2023-03-01T05:55:48;101171.96044921875;;;-0.71;74.84
44531;BME280;30240;47.418;0.700;2023-03-01T05:58:16;101171.96044921875;;;-0.71;74.84
44531;BME280;30240;47.418;0.700;2023-03-01T06:00:39;101167.3095703125;;;-0.73;74.96
44531;BME280;30240;47.418;0.700;2023-03-01T06:03:03;101168.56079101562;;;-0.73;75.0
44531;BME280;30240;47.418;0.700;2023-03-01T06:05:29;101164.34936523438;;;-0.74;74.96
44531;BME280;30240;47.418;0.700;2023-03-01T06:07:54;101161.46240234375;;;-0.77;75.1
44531;BME280;30240;47.418;0.700;2023-03-01T06:10:20;101161.46240234375;;;-0.77;75.1
44531;BME280;30240;47.418;0.700;2023-03-01T06:12:44;101160.57739257812;;;-0.76;75.25
44531;BME280;30240;47.418;0.700;2023-03-01T06:15:10;101156.884765625;;;-0.8;75.29
44531;BME280;30240;47.418;0.700;2023-03-01T06:17:34;101153.74755859375;;;-0.84;75.34
44531;BME280;30240;47.418;0.700;2023-03-01T06:19:58;101154.18701171875;;;-0.83;75.32
44531;BME280;30240;47.418;0.700;2023-03-01T06:22:24;101154.18701171875;;;-0.83;75.32
44531;BME280;30240;47.418;0.700;2023-03-01T06:24:49;101158.09326171875;;;-0.88;75.55
44531;BME280;30240;47.418;0.700;2023-03-01T06:27:14;101163.720703125;;;-0.87;75.63
44531;BME280;30240;47.418;0.700;2023-03-01T06:29:38;101155.126953125;;;-0.78;75.43
44531;BME280;30240;47.418;0.700;2023-03-01T06:32:04;101158.8623046875;;;-0.81;75.46
44531;BME280;30240;47.418;0.700;2023-03-01T06:34:29;101158.8623046875;;;-0.81;75.46
44531;BME280;30240;47.418;0.700;2023-03-01T06:36:53;101162.75024414062;;;-0.83;75.66
44531;BME280;30240;47.418;0.700;2023-03-01T06:39:18;101155.30395507812;;;-0.8;75.63
44531;BME280;30240;47.418;0.700;2023-03-01T06:41:43;101161.1572265625;;;-0.78;75.76
44531;BME280;30240;47.418;0.700;2023-03-01T06:44:08;101156.86645507812;;;-0.74;75.89
44531;BME280;30240;47.418;0.700;2023-03-01T06:46:33;101156.86645507812;;;-0.74;75.89
44531;BME280;30240;47.418;0.700;2023-03-01T06:48:58;101159.70458984375;;;-0.74;75.93
44531;BME280;30240;47.418;0.700;2023-03-01T06:51:23;101160.8154296875;;;-0.74;75.83
44531;BME280;30240;47.418;0.700;2023-03-01T06:53:48;101162.09106445312;;;-0.69;75.89
44531;BME280;30240;47.418;0.700;2023-03-01T06:56:13;101158.4228515625;;;-0.67;75.93
44531;BME280;30240;47.418;0.700;2023-03-01T06:58:38;101164.43481445312;;;-0.76;76.13
44531;BME280;30240;47.418;0.700;2023-03-01T07:01:05;101164.43481445312;;;-0.76;76.13
44531;BME280;30240;47.418;0.700;2023-03-01T07:03:28;101161.376953125;;;-0.71;76.13
44531;BME280;30240;47.418;0.700;2023-03-01T07:05:53;101154.3701171875;;;-0.63;75.75
44531;BME280;30240;47.418;0.700;2023-03-01T07:08:19;101149.5849609375;;;-0.59;75.57
44531;BME280;30240;47.418;0.700;2023-03-01T07:10:44;101145.54443359375;;;-0.26;74.63
44531;BME280;30240;47.418;0.700;2023-03-01T07:13:08;101145.54443359375;;;-0.26;74.63
44531;BME280;30240;47.418;0.700;2023-03-01T07:15:33;101141.58325195312;;;0.13;73.44
44531;BME280;30240;47.418;0.700;2023-03-01T07:17:58;101135.13793945312;;;0.27;72.81
44531;BME280;30240;47.418;0.700;2023-03-01T07:20:24;101134.78393554688;;;0.54;71.98
44531;BME280;30240;47.418;0.700;2023-03-01T07:22:48;101131.0791015625;;;0.49;71.97
44531;BME280;30240;47.418;0.700;2023-03-01T07:25:14;101131.0791015625;;;0.49;71.97
44531;BME280;30240;47.418;0.700;2023-03-01T07:27:48;101127.89306640625;;;0.9;70.7
44531;BME280;30240;47.418;0.700;2023-03-01T07:30:04;101129.93774414062;;;1.04;70.14
44531;BME280;30240;47.418;0.700;2023-03-01T07:32:29;101124.8779296875;;;1.39;69.62
44531;BME280;30240;47.418;0.700;2023-03-01T07:34:53;101122.51586914062;;;1.38;68.6
44531;BME280;30240;47.418;0.700;2023-03-01T07:37:18;101122.51586914062;;;1.38;68.6
44531;BME280;30240;47.418;0.700;2023-03-01T07:39:43;101115.05737304688;;;1.34;69.0
44531;BME280;30240;47.418;0.700;2023-03-01T07:42:08;101108.20922851562;;;1.78;67.97
44531;BME280;30240;47.418;0.700;2023-03-01T07:44:34;101105.48706054688;;;1.31;69.08
44531;BME280;30240;47.418;0.700;2023-03-01T07:46:58;101092.95043945312;;;1.53;68.06
44531;BME280;30240;47.418;0.700;2023-03-01T07:49:24;101092.95043945312;;;1.53;68.06
44531;BME280;30240;47.418;0.700;2023-03-01T07:51:48;101093.18237304688;;;1.42;68.08
44531;BME280;30240;47.418;0.700;2023-03-01T07:54:13;101098.01635742188;;;1.31;68.77
44531;BME280;30240;47.418;0.700;2023-03-01T07:56:39;101094.62280273438;;;1.78;67.59
44531;BME280;30240;47.418;0.700;2023-03-01T07:59:03;101094.189453125;;;1.71;67.22
44531;BME280;30240;47.418;0.700;2023-03-01T08:01:28;101094.189453125;;;1.71;67.22
44531;BME280;30240;47.418;0.700;2023-03-01T08:03:53;101096.39282226562;;;1.95;67.21
44531;BME280;30240;47.418;0.700;2023-03-01T08:06:18;101096.22802734375;;;2.51;65.46
44531;BME280;30240;47.418;0.700;2023-03-01T08:08:44;101090.59448242188;;;2.33;65.61
44531;BME280;30240;47.418;0.700;2023-03-01T08:11:10;101087.92114257812;;;2.4;65.72
44531;BME280;30240;47.418;0.700;2023-03-01T08:13:34;101087.92114257812;;;2.4;65.72
44531;BME280;30240;47.418;0.700;2023-03-01T08:16:01;101096.7041015625;;;3.06;63.59
44531;BME280;30240;47.418;0.700;2023-03-01T08:18:24;101088.05541992188;;;2.93;64.36
44531;BME280;30240;47.418;0.700;2023-03-01T08:20:48;101086.66381835938;;;2.64;64.57
44531;BME280;30240;47.418;0.700;2023-03-01T08:23:13;101088.36059570312;;;2.47;64.84
44531;BME280;30240;47.418;0.700;2023-03-01T08:25:39;101082.28759765625;;;2.58;64.31
44531;BME280;30240;47.418;0.700;2023-03-01T08:28:04;101082.28759765625;;;2.58;64.31
44531;BME280;30240;47.418;0.700;2023-03-01T08:30:29;101079.7607421875;;;3.22;63.0
44531;BME280;30240;47.418;0.700;2023-03-01T08:32:54;101069.42138671875;;;2.81;63.34
44531;BME280;30240;47.418;0.700;2023-03-01T08:35:19;101074.74365234375;;;2.7;64.01
44531;BME280;30240;47.418;0.700;2023-03-01T08:37:43;101077.9052734375;;;3.33;62.83
44531;BME280;30240;47.418;0.700;2023-03-01T08:40:09;101077.9052734375;;;3.33;62.83
44531;BME280;30240;47.418;0.700;2023-03-01T08:42:33;101068.32885742188;;;3.71;61.47
44531;BME280;30240;47.418;0.700;2023-03-01T08:44:59;101068.86596679688;;;4.55;59.7
44531;BME280;30240;47.418;0.700;2023-03-01T08:47:23;101069.4091796875;;;5.12;57.86
44531;BME280;30240;47.418;0.700;2023-03-01T08:49:49;101069.68994140625;;;4.55;58.22
44531;BME280;30240;47.418;0.700;2023-03-01T08:52:13;101069.68994140625;;;4.55;58.22
44531;BME280;30240;47.418;0.700;2023-03-01T08:54:38;101063.28735351562;;;3.85;60.06
44531;BME280;30240;47.418;0.700;2023-03-01T08:57:03;101074.46899414062;;;4.44;59.95
44531;BME280;30240;47.418;0.700;2023-03-01T08:59:29;101072.35717773438;;;4.6;58.88
44531;BME280;30240;47.418;0.700;2023-03-01T09:01:54;101067.07153320312;;;4.8;58.56
44531;BME280;30240;47.418;0.700;2023-03-01T09:04:18;101067.07153320312;;;4.8;58.56
44531;BME280;30240;47.418;0.700;2023-03-01T09:06:43;101068.4814453125;;;4.86;58.77
44531;BME280;30240;47.418;0.700;2023-03-01T09:09:12;101074.33471679688;;;5.5;57.43
44531;BME280;30240;47.418;0.700;2023-03-01T09:11:33;101077.392578125;;;4.6;59.19
44531;BME280;30240;47.418;0.700;2023-03-01T09:13:58;101068.60961914062;;;4.58;59.34
44531;BME280;30240;47.418;0.700;2023-03-01T09:16:24;101068.60961914062;;;4.58;59.34
44531;BME280;30240;47.418;0.700;2023-03-01T09:18:49;101063.86108398438;;;4.79;58.62
44531;BME280;30240;47.418;0.700;2023-03-01T09:21:15;101063.9892578125;;;5.4;57.85
44531;BME280;30240;47.418;0.700;2023-03-01T09:23:40;101064.70947265625;;;5.77;56.25
44531;BME280;30240;47.418;0.700;2023-03-01T09:26:04;101064.2333984375;;;4.77;58.63
44531;BME280;30240;47.418;0.700;2023-03-01T09:28:28;101064.2333984375;;;4.77;58.63
44531;BME280;30240;47.418;0.700;2023-03-01T09:30:57;101064.5263671875;;;5.8;55.67
44531;BME280;30240;47.418;0.700;2023-03-01T09:33:18;101053.82690429688;;;5.75;55.97
44531;BME280;30240;47.418;0.700;2023-03-01T09:35:44;101049.29809570312;;;5.61;56.93
44531;BME280;30240;47.418;0.700;2023-03-01T09:38:09;101046.54541015625;;;5.66;56.51
44531;BME280;30240;47.418;0.700;2023-03-01T09:40:33;101046.54541015625;;;5.66;56.51
44531;BME280;30240;47.418;0.700;2023-03-01T09:43:02;101050.06103515625;;;5.95;55.65
44531;BME280;30240;47.418;0.700;2023-03-01T09:45:27;101040.17333984375;;;6.13;55.51
44531;BME280;30240;47.418;0.700;2023-03-01T09:47:49;101042.21801757812;;;6.81;53.93
44531;BME280;30240;47.418;0.700;2023-03-01T09:50:15;101041.064453125;;;5.94;55.14
44531;BME280;30240;47.418;0.700;2023-03-01T09:52:41;101041.064453125;;;5.94;55.14
44531;BME280;30240;47.418;0.700;2023-03-01T09:55:08;101034.423828125;;;6.26;55.02
44531;BME280;30240;47.418;0.700;2023-03-01T09:57:33;101029.43725585938;;;5.97;55.81
44531;BME280;30240;47.418;0.700;2023-03-01T10:00:00;101023.10791015625;;;6.32;54.47
44531;BME280;30240;47.418;0.700;2023-03-01T10:02:24;101015.53955078125;;;6.5;54.01
44531;BME280;30240;47.418;0.700;2023-03-01T10:04:46;101014.39208984375;;;6.67;53.4
44531;BME280;30240;47.418;0.700;2023-03-01T10:07:17;101014.39208984375;;;6.67;53.4
44531;BME280;30240;47.418;0.700;2023-03-01T10:09:35;101012.22534179688;;;6.38;54.93
44531;BME280;30240;47.418;0.700;2023-03-01T10:12:00;101009.51538085938;;;7.48;52.62
44531;BME280;30240;47.418;0.700;2023-03-01T10:14:30;101009.2041015625;;;8.06;52.06
44531;BME280;30240;47.418;0.700;2023-03-01T10:16:51;101006.53686523438;;;7.73;51.63
44531;BME280;30240;47.418;0.700;2023-03-01T10:19:17;101006.53686523438;;;7.73;51.63
44531;BME280;30240;47.418;0.700;2023-03-01T10:21:43;101004.72412109375;;;7.27;52.17
44531;BME280;30240;47.418;0.700;2023-03-01T10:24:10;101002.783203125;;;7.82;51.87
44531;BME280;30240;47.418;0.700;2023-03-01T10:26:41;100999.29809570312;;;8.15;50.79
44531;BME280;30240;47.418;0.700;2023-03-01T10:29:00;100995.25756835938;;;8.48;48.91
44531;BME280;30240;47.418;0.700;2023-03-01T10:31:21;100995.25756835938;;;8.48;48.91
44531;BME280;30240;47.418;0.700;2023-03-01T10:33:43;100996.77124023438;;;8.83;48.94
44531;BME280;30240;47.418;0.700;2023-03-01T10:36:08;100991.63818359375;;;9.73;47.99
44531;BME280;30240;47.418;0.700;2023-03-01T10:38:49;100989.90478515625;;;8.32;50.5
44531;BME280;30240;47.418;0.700;2023-03-01T10:41:00;100975.78125;;;8.59;50.84
44531;BME280;30240;47.418;0.700;2023-03-01T10:43:24;100975.78125;;;8.59;50.84
44531;BME280;30240;47.418;0.700;2023-03-01T10:45:49;100964.65454101562;;;8.74;48.84
44531;BME280;30240;47.418;0.700;2023-03-01T10:48:16;100965.10009765625;;;9.03;49.07
44531;BME280;30240;47.418;0.700;2023-03-01T10:50:39;100963.86108398438;;;8.98;48.45
44531;BME280;30240;47.418;0.700;2023-03-01T10:53:04;100956.04858398438;;;9.5;46.49
44531;BME280;30240;47.418;0.700;2023-03-01T10:55:31;100956.04858398438;;;9.5;46.49
44531;BME280;30240;47.418;0.700;2023-03-01T10:58:11;100958.22143554688;;;10.08;46.42
44531;BME280;30240;47.418;0.700;2023-03-01T10:58:17;100958.22143554688;;;10.08;46.42
44531;BME280;30240;47.418;0.700;2023-03-01T11:00:20;100948.04077148438;;;8.81;49.23
44531;BME280;30240;47.418;0.700;2023-03-01T11:02:46;100943.73168945312;;;9.35;48.31
44531;BME280;30240;47.418;0.700;2023-03-01T11:05:18;100936.99951171875;;;9.58;47.23
44531;BME280;30240;47.418;0.700;2023-03-01T11:07:47;100936.99951171875;;;9.58;47.23
44531;BME280;30240;47.418;0.700;2023-03-01T11:09:58;100926.15356445312;;;9.67;46.88
44531;BME280;30240;47.418;0.700;2023-03-01T11:12:24;100918.75;;;8.48;48.77
44531;BME280;30240;47.418;0.700;2023-03-01T11:14:50;100918.017578125;;;9.57;46.29
44531;BME280;30240;47.418;0.700;2023-03-01T11:17:17;100916.60766601562;;;9.5;47.08
44531;BME280;30240;47.418;0.700;2023-03-01T11:19:38;100916.60766601562;;;9.5;47.08
44531;BME280;30240;47.418;0.700;2023-03-01T11:22:10;100909.92431640625;;;9.31;47.25